BHS327 MYNN-MYGF
Flight info
| Callsign | BHS327 |
|---|---|
| Flight time | 0h 27m |
| Altitude | 18000 |
| Route | PEACH BR65V ZFP |
| Aircraft | B737/M-SDE2E3FGHIRWXY/LB1 |
Departure
| Time | 2026-04-14 21:54 |
|---|---|
| Airport | Lynden Pindling International Airport (MYNN) |
Arrival
| Time | 2026-04-14 22:21 |
|---|---|
| Airport | Grand Bahama International Airport (MYGF) |
| Time | Latitude | Longitude | Altitude | Speed | Heading |
|---|---|---|---|---|---|
| 2026-04-14 21:31 | 25.04806 | -77.46737 | 16 ft | 0 kts | 312° |
| 2026-04-14 21:44 | 25.04795 | -77.46723 | 16 ft | 2 kts | 312° |
| 2026-04-14 21:44 | 25.04784 | -77.46710 | 18 ft | 2 kts | 311° |
| 2026-04-14 21:45 | 25.04774 | -77.46695 | 18 ft | 2 kts | 306° |
| 2026-04-14 21:45 | 25.04767 | -77.46679 | 18 ft | 2 kts | 242° |
| 2026-04-14 21:45 | 25.04769 | -77.46675 | 17 ft | 0 kts | 227° |
| 2026-04-14 21:48 | 25.04756 | -77.46690 | 18 ft | 5 kts | 223° |
| 2026-04-14 21:48 | 25.04723 | -77.46724 | 16 ft | 7 kts | 223° |
| 2026-04-14 21:48 | 25.04705 | -77.46770 | 17 ft | 7 kts | 281° |
| 2026-04-14 21:48 | 25.04738 | -77.46816 | 17 ft | 9 kts | 313° |
| 2026-04-14 21:49 | 25.04784 | -77.46868 | 19 ft | 10 kts | 316° |
| 2026-04-14 21:49 | 25.04832 | -77.46921 | 18 ft | 10 kts | 314° |
| 2026-04-14 21:49 | 25.04878 | -77.46972 | 17 ft | 9 kts | 314° |
| 2026-04-14 21:49 | 25.04924 | -77.47025 | 17 ft | 10 kts | 314° |
| 2026-04-14 21:50 | 25.04978 | -77.47084 | 17 ft | 12 kts | 315° |
| 2026-04-14 21:50 | 25.05042 | -77.47155 | 17 ft | 14 kts | 315° |
| 2026-04-14 21:50 | 25.05113 | -77.47234 | 17 ft | 14 kts | 315° |
| 2026-04-14 21:50 | 25.05158 | -77.47285 | 18 ft | 14 kts | 314° |
| 2026-04-14 21:51 | 25.05220 | -77.47381 | 17 ft | 8 kts | 278° |
| 2026-04-14 21:51 | 25.05218 | -77.47421 | 18 ft | 2 kts | 255° |
| 2026-04-14 21:51 | 25.05216 | -77.47430 | 18 ft | 2 kts | 255° |
| 2026-04-14 21:51 | 25.05209 | -77.47456 | 19 ft | 5 kts | 255° |
| 2026-04-14 21:52 | 25.05198 | -77.47496 | 20 ft | 5 kts | 245° |
| 2026-04-14 21:52 | 25.05175 | -77.47529 | 22 ft | 5 kts | 229° |
| 2026-04-14 21:52 | 25.05145 | -77.47529 | 20 ft | 6 kts | 131° |
| 2026-04-14 21:52 | 25.05139 | -77.47521 | 19 ft | 0 kts | 134° |
| 2026-04-14 21:53 | 25.05123 | -77.47503 | 21 ft | 12 kts | 135° |
| 2026-04-14 21:53 | 25.04880 | -77.47234 | 18 ft | 87 kts | 135° |
| 2026-04-14 21:53 | 25.04527 | -77.46840 | 21 ft | 129 kts | 135° |
| 2026-04-14 21:54 | 25.03762 | -77.46010 | 217 ft | 164 kts | 131° |
| 2026-04-14 21:54 | 25.02942 | -77.45240 | 1163 ft | 156 kts | 134° |
| 2026-04-14 21:54 | 25.02042 | -77.44433 | 1569 ft | 181 kts | 134° |
| 2026-04-14 21:54 | 25.00996 | -77.43489 | 1876 ft | 207 kts | 134° |
| 2026-04-14 21:55 | 24.99835 | -77.42410 | 2169 ft | 229 kts | 134° |
| 2026-04-14 21:55 | 24.98625 | -77.41132 | 2418 ft | 248 kts | 118° |
| 2026-04-14 21:55 | 24.98246 | -77.39351 | 3236 ft | 242 kts | 81° |
| 2026-04-14 21:55 | 24.98893 | -77.37646 | 4031 ft | 246 kts | 52° |
| 2026-04-14 21:56 | 25.00225 | -77.36419 | 4827 ft | 257 kts | 28° |
| 2026-04-14 21:56 | 25.01978 | -77.35905 | 5569 ft | 269 kts | 4° |
| 2026-04-14 21:56 | 25.03833 | -77.36346 | 6407 ft | 282 kts | 336° |
| 2026-04-14 21:56 | 25.05433 | -77.37590 | 7242 ft | 289 kts | 323° |
| 2026-04-14 21:57 | 25.06964 | -77.39106 | 8103 ft | 294 kts | 320° |
| 2026-04-14 21:57 | 25.08435 | -77.40653 | 8989 ft | 297 kts | 319° |
| 2026-04-14 21:57 | 25.09929 | -77.42249 | 9900 ft | 300 kts | 319° |
| 2026-04-14 21:57 | 25.11447 | -77.43872 | 10590 ft | 311 kts | 319° |
| 2026-04-14 21:58 | 25.13075 | -77.45604 | 10789 ft | 338 kts | 319° |
| 2026-04-14 21:58 | 25.14832 | -77.47466 | 11059 ft | 360 kts | 319° |
| 2026-04-14 21:58 | 25.16659 | -77.49402 | 11697 ft | 366 kts | 319° |
| 2026-04-14 21:58 | 25.18499 | -77.51356 | 12528 ft | 368 kts | 319° |
| 2026-04-14 21:59 | 25.20342 | -77.53311 | 13338 ft | 370 kts | 318° |
| 2026-04-14 21:59 | 25.22213 | -77.55294 | 14099 ft | 373 kts | 319° |
| 2026-04-14 21:59 | 25.24097 | -77.57288 | 14807 ft | 376 kts | 319° |
| 2026-04-14 21:59 | 25.25983 | -77.59287 | 15581 ft | 376 kts | 318° |
| 2026-04-14 22:00 | 25.27879 | -77.61296 | 16341 ft | 378 kts | 319° |
| 2026-04-14 22:00 | 25.29779 | -77.63308 | 17088 ft | 380 kts | 318° |
| 2026-04-14 22:00 | 25.31686 | -77.65329 | 17747 ft | 379 kts | 318° |
| 2026-04-14 22:00 | 25.33575 | -77.67333 | 17982 ft | 375 kts | 318° |
| 2026-04-14 22:01 | 25.35476 | -77.69349 | 17975 ft | 391 kts | 318° |
| 2026-04-14 22:01 | 25.37484 | -77.71476 | 17992 ft | 407 kts | 318° |
| 2026-04-14 22:01 | 25.39533 | -77.73650 | 17979 ft | 409 kts | 318° |
| 2026-04-14 22:01 | 25.41595 | -77.75841 | 17988 ft | 413 kts | 318° |
| 2026-04-14 22:02 | 25.43718 | -77.77976 | 17967 ft | 412 kts | 323° |
| 2026-04-14 22:02 | 25.46009 | -77.79852 | 17976 ft | 409 kts | 326° |
| 2026-04-14 22:02 | 25.48316 | -77.81689 | 17969 ft | 408 kts | 326° |
| 2026-04-14 22:02 | 25.50592 | -77.83508 | 17706 ft | 398 kts | 326° |
| 2026-04-14 22:03 | 25.52795 | -77.85290 | 17434 ft | 383 kts | 325° |
| 2026-04-14 22:03 | 25.54904 | -77.87004 | 17174 ft | 370 kts | 325° |
| 2026-04-14 22:03 | 25.56955 | -77.88673 | 16924 ft | 362 kts | 326° |
| 2026-04-14 22:03 | 25.58979 | -77.90321 | 16689 ft | 359 kts | 326° |
| 2026-04-14 22:04 | 25.60967 | -77.91940 | 16447 ft | 359 kts | 326° |
| 2026-04-14 22:04 | 25.62978 | -77.93577 | 16213 ft | 359 kts | 326° |
| 2026-04-14 22:04 | 25.64987 | -77.95215 | 15968 ft | 358 kts | 326° |
| 2026-04-14 22:04 | 25.66992 | -77.96849 | 15732 ft | 358 kts | 326° |
| 2026-04-14 22:05 | 25.68998 | -77.98486 | 15491 ft | 358 kts | 326° |
| 2026-04-14 22:05 | 25.70999 | -78.00119 | 15258 ft | 357 kts | 326° |
| 2026-04-14 22:05 | 25.73002 | -78.01755 | 15028 ft | 357 kts | 326° |
| 2026-04-14 22:05 | 25.75000 | -78.03389 | 14795 ft | 357 kts | 326° |
| 2026-04-14 22:06 | 25.77003 | -78.05026 | 14566 ft | 356 kts | 326° |
| 2026-04-14 22:06 | 25.78998 | -78.06656 | 14267 ft | 356 kts | 326° |
| 2026-04-14 22:06 | 25.80997 | -78.08290 | 13728 ft | 355 kts | 326° |
| 2026-04-14 22:06 | 25.82949 | -78.09890 | 13183 ft | 352 kts | 326° |
| 2026-04-14 22:07 | 25.84917 | -78.11505 | 12630 ft | 349 kts | 326° |
| 2026-04-14 22:07 | 25.86872 | -78.13105 | 12089 ft | 347 kts | 326° |
| 2026-04-14 22:07 | 25.88814 | -78.14697 | 11549 ft | 345 kts | 326° |
| 2026-04-14 22:07 | 25.90749 | -78.16283 | 10984 ft | 345 kts | 326° |
| 2026-04-14 22:08 | 25.92649 | -78.17842 | 10582 ft | 340 kts | 326° |
| 2026-04-14 22:08 | 25.94512 | -78.19374 | 10381 ft | 328 kts | 326° |
| 2026-04-14 22:08 | 25.96312 | -78.20853 | 10240 ft | 316 kts | 327° |
| 2026-04-14 22:08 | 25.98052 | -78.22282 | 10098 ft | 305 kts | 326° |
| 2026-04-14 22:09 | 25.99728 | -78.23659 | 9897 ft | 296 kts | 326° |
| 2026-04-14 22:09 | 26.01384 | -78.25020 | 9501 ft | 295 kts | 326° |
| 2026-04-14 22:09 | 26.03029 | -78.26371 | 9145 ft | 293 kts | 326° |
| 2026-04-14 22:09 | 26.04670 | -78.27718 | 8773 ft | 292 kts | 327° |
| 2026-04-14 22:10 | 26.06303 | -78.29059 | 8409 ft | 291 kts | 326° |
| 2026-04-14 22:10 | 26.07929 | -78.30396 | 8046 ft | 290 kts | 326° |
| 2026-04-14 22:10 | 26.09547 | -78.31728 | 7694 ft | 289 kts | 326° |
| 2026-04-14 22:10 | 26.11160 | -78.33057 | 7365 ft | 287 kts | 326° |
| 2026-04-14 22:11 | 26.12756 | -78.34394 | 7004 ft | 287 kts | 322° |
| 2026-04-14 22:11 | 26.14179 | -78.35919 | 6816 ft | 282 kts | 315° |
| 2026-04-14 22:11 | 26.15487 | -78.37529 | 6616 ft | 277 kts | 314° |
| 2026-04-14 22:11 | 26.16739 | -78.39112 | 6408 ft | 275 kts | 314° |
| 2026-04-14 22:12 | 26.18020 | -78.40726 | 6221 ft | 274 kts | 314° |
| 2026-04-14 22:12 | 26.19273 | -78.42297 | 6039 ft | 276 kts | 314° |
| 2026-04-14 22:12 | 26.20561 | -78.43898 | 5857 ft | 279 kts | 314° |
| 2026-04-14 22:12 | 26.21860 | -78.45506 | 5664 ft | 278 kts | 314° |
| 2026-04-14 22:13 | 26.23157 | -78.47104 | 5478 ft | 278 kts | 314° |
| 2026-04-14 22:13 | 26.24453 | -78.48697 | 5287 ft | 277 kts | 314° |
| 2026-04-14 22:13 | 26.25740 | -78.50276 | 5096 ft | 274 kts | 314° |
| 2026-04-14 22:13 | 26.27016 | -78.51845 | 4915 ft | 271 kts | 314° |
| 2026-04-14 22:14 | 26.28259 | -78.53370 | 4726 ft | 267 kts | 314° |
| 2026-04-14 22:14 | 26.29508 | -78.54903 | 4549 ft | 268 kts | 315° |
| 2026-04-14 22:14 | 26.30761 | -78.56440 | 4363 ft | 268 kts | 315° |
| 2026-04-14 22:14 | 26.32015 | -78.57980 | 4188 ft | 267 kts | 315° |
| 2026-04-14 22:15 | 26.33267 | -78.59516 | 4006 ft | 267 kts | 314° |
| 2026-04-14 22:15 | 26.34515 | -78.61050 | 3836 ft | 267 kts | 315° |
| 2026-04-14 22:15 | 26.35764 | -78.62584 | 3653 ft | 267 kts | 315° |
| 2026-04-14 22:15 | 26.37016 | -78.64120 | 3475 ft | 267 kts | 315° |
| 2026-04-14 22:16 | 26.38270 | -78.65661 | 3289 ft | 267 kts | 315° |
| 2026-04-14 22:16 | 26.39513 | -78.67189 | 3104 ft | 266 kts | 315° |
| 2026-04-14 22:16 | 26.40733 | -78.68691 | 2913 ft | 261 kts | 315° |
| 2026-04-14 22:16 | 26.41941 | -78.70178 | 2746 ft | 255 kts | 316° |
| 2026-04-14 22:17 | 26.43118 | -78.71624 | 2577 ft | 249 kts | 315° |
| 2026-04-14 22:17 | 26.44268 | -78.73040 | 2409 ft | 244 kts | 316° |
| 2026-04-14 22:17 | 26.45384 | -78.74415 | 2279 ft | 233 kts | 316° |
| 2026-04-14 22:17 | 26.46440 | -78.75719 | 2079 ft | 218 kts | 317° |
| 2026-04-14 22:18 | 26.47502 | -78.76681 | 1914 ft | 195 kts | 338° |
| 2026-04-14 22:18 | 26.48645 | -78.77358 | 1805 ft | 179 kts | 338° |
| 2026-04-14 22:18 | 26.49687 | -78.77997 | 1677 ft | 163 kts | 339° |
| 2026-04-14 22:18 | 26.50681 | -78.78304 | 1634 ft | 139 kts | 10° |
| 2026-04-14 22:19 | 26.51539 | -78.77922 | 1454 ft | 131 kts | 46° |
| 2026-04-14 22:19 | 26.52447 | -78.76229 | 1115 ft | 129 kts | 63° |
| 2026-04-14 22:19 | 26.52891 | -78.75379 | 927 ft | 125 kts | 62° |
| 2026-04-14 22:20 | 26.53319 | -78.74538 | 774 ft | 129 kts | 59° |
| 2026-04-14 22:20 | 26.53789 | -78.73661 | 667 ft | 133 kts | 60° |
| 2026-04-14 22:20 | 26.54256 | -78.72784 | 391 ft | 131 kts | 62° |
| 2026-04-14 22:20 | 26.54706 | -78.71881 | 204 ft | 133 kts | 59° |
| 2026-04-14 22:21 | 26.55151 | -78.70997 | 36 ft | 128 kts | 58° |
| 2026-04-14 22:21 | 26.55541 | -78.70210 | 26 ft | 92 kts | 61° |
| 2026-04-14 22:21 | 26.55746 | -78.69804 | 22 ft | 30 kts | 60° |
| 2026-04-14 22:21 | 26.55843 | -78.69608 | 24 ft | 26 kts | 61° |
| 2026-04-14 22:22 | 26.55881 | -78.69498 | 23 ft | 13 kts | 93° |
| 2026-04-14 22:22 | 26.55825 | -78.69429 | 24 ft | 13 kts | 174° |
| 2026-04-14 22:22 | 26.55750 | -78.69480 | 23 ft | 13 kts | 219° |
| 2026-04-14 22:22 | 26.55675 | -78.69552 | 25 ft | 16 kts | 221° |
| 2026-04-14 22:23 | 26.55582 | -78.69643 | 24 ft | 20 kts | 221° |
| 2026-04-14 22:23 | 26.55472 | -78.69750 | 23 ft | 21 kts | 221° |
| 2026-04-14 22:23 | 26.55362 | -78.69857 | 23 ft | 21 kts | 221° |
| 2026-04-14 22:23 | 26.55255 | -78.69961 | 23 ft | 20 kts | 221° |
| 2026-04-14 22:24 | 26.55151 | -78.70062 | 24 ft | 19 kts | 221° |
| 2026-04-14 22:24 | 26.55050 | -78.70160 | 25 ft | 19 kts | 221° |
| 2026-04-14 22:24 | 26.54951 | -78.70240 | 23 ft | 16 kts | 192° |
| 2026-04-14 22:24 | 26.54867 | -78.70240 | 24 ft | 7 kts | 178° |
| 2026-04-14 22:25 | 26.54822 | -78.70240 | 24 ft | 6 kts | 191° |
| 2026-04-14 22:25 | 26.54817 | -78.70261 | 23 ft | 2 kts | 282° |
| 2026-04-14 22:25 | 26.54818 | -78.70266 | 23 ft | 0 kts | 282° |